sensor_id;sensor_type;location;lat;lon;timestamp;temperature;humidity
15355;DHT22;7777;52.254;9.618;2023-08-17T00:02:05;20.50;99.90
15355;DHT22;7777;52.254;9.618;2023-08-17T00:04:31;20.50;99.90
15355;DHT22;7777;52.254;9.618;2023-08-17T00:06:56;20.50;99.90
15355;DHT22;7777;52.254;9.618;2023-08-17T00:09:22;20.50;99.90
15355;DHT22;7777;52.254;9.618;2023-08-17T00:11:48;20.40;99.90
15355;DHT22;7777;52.254;9.618;2023-08-17T00:14:13;20.40;99.90
15355;DHT22;7777;52.254;9.618;2023-08-17T00:16:39;20.40;99.90
15355;DHT22;7777;52.254;9.618;2023-08-17T00:19:06;20.40;99.90
15355;DHT22;7777;52.254;9.618;2023-08-17T00:21:33;20.30;99.90
15355;DHT22;7777;52.254;9.618;2023-08-17T00:23:58;20.30;99.90
15355;DHT22;7777;52.254;9.618;2023-08-17T00:26:24;20.30;99.90
15355;DHT22;7777;52.254;9.618;2023-08-17T00:28:50;20.30;99.90
15355;DHT22;7777;52.254;9.618;2023-08-17T00:31:16;20.30;99.90
15355;DHT22;7777;52.254;9.618;2023-08-17T00:33:42;20.20;99.90
15355;DHT22;7777;52.254;9.618;2023-08-17T00:36:07;20.20;99.90
15355;DHT22;7777;52.254;9.618;2023-08-17T00:38:33;20.20;99.90
15355;DHT22;7777;52.254;9.618;2023-08-17T00:40:59;20.20;99.90
15355;DHT22;7777;52.254;9.618;2023-08-17T00:43:24;20.20;99.90
15355;DHT22;7777;52.254;9.618;2023-08-17T00:45:50;20.10;99.90
15355;DHT22;7777;52.254;9.618;2023-08-17T00:48:16;20.10;99.90
15355;DHT22;7777;52.254;9.618;2023-08-17T00:50:43;20.10;99.90
15355;DHT22;7777;52.254;9.618;2023-08-17T00:53:13;20.00;99.90
15355;DHT22;7777;52.254;9.618;2023-08-17T00:55:41;20.00;99.90
15355;DHT22;7777;52.254;9.618;2023-08-17T00:58:07;20.00;99.90
15355;DHT22;7777;52.254;9.618;2023-08-17T01:00:33;20.00;99.90
15355;DHT22;7777;52.254;9.618;2023-08-17T01:02:59;20.00;99.90
15355;DHT22;7777;52.254;9.618;2023-08-17T01:05:25;19.90;99.90
15355;DHT22;7777;52.254;9.618;2023-08-17T01:07:51;19.90;99.90
15355;DHT22;7777;52.254;9.618;2023-08-17T01:10:17;19.90;99.90
15355;DHT22;7777;52.254;9.618;2023-08-17T01:13:03;19.90;99.90
15355;DHT22;7777;52.254;9.618;2023-08-17T01:15:42;19.80;99.90
15355;DHT22;7777;52.254;9.618;2023-08-17T01:18:24;19.80;99.90
15355;DHT22;7777;52.254;9.618;2023-08-17T01:20:52;19.80;99.90
15355;DHT22;7777;52.254;9.618;2023-08-17T01:23:19;19.80;99.90
15355;DHT22;7777;52.254;9.618;2023-08-17T01:25:45;19.80;99.90
15355;DHT22;7777;52.254;9.618;2023-08-17T01:28:11;19.80;99.90
15355;DHT22;7777;52.254;9.618;2023-08-17T01:30:44;19.70;99.90
15355;DHT22;7777;52.254;9.618;2023-08-17T01:33:15;19.70;99.90
15355;DHT22;7777;52.254;9.618;2023-08-17T01:36:06;19.70;99.90
15355;DHT22;7777;52.254;9.618;2023-08-17T01:38:38;19.70;99.90
15355;DHT22;7777;52.254;9.618;2023-08-17T01:41:06;19.60;99.90
15355;DHT22;7777;52.254;9.618;2023-08-17T01:43:40;19.60;99.90
15355;DHT22;7777;52.254;9.618;2023-08-17T01:46:07;19.60;99.90
15355;DHT22;7777;52.254;9.618;2023-08-17T01:48:33;19.50;99.90
15355;DHT22;7777;52.254;9.618;2023-08-17T01:50:59;19.50;99.90
15355;DHT22;7777;52.254;9.618;2023-08-17T01:53:25;19.50;99.90
15355;DHT22;7777;52.254;9.618;2023-08-17T01:55:50;19.50;99.90
15355;DHT22;7777;52.254;9.618;2023-08-17T01:58:16;19.50;99.90
15355;DHT22;7777;52.254;9.618;2023-08-17T02:00:42;19.50;99.90
15355;DHT22;7777;52.254;9.618;2023-08-17T02:03:07;19.50;99.90
15355;DHT22;7777;52.254;9.618;2023-08-17T02:05:33;19.50;99.90
15355;DHT22;7777;52.254;9.618;2023-08-17T02:07:59;19.40;99.90
15355;DHT22;7777;52.254;9.618;2023-08-17T02:10:25;19.50;99.90
15355;DHT22;7777;52.254;9.618;2023-08-17T02:12:50;19.40;99.90
15355;DHT22;7777;52.254;9.618;2023-08-17T02:15:16;19.40;99.90
15355;DHT22;7777;52.254;9.618;2023-08-17T02:17:42;19.40;99.90
15355;DHT22;7777;52.254;9.618;2023-08-17T02:20:08;19.40;99.90
15355;DHT22;7777;52.254;9.618;2023-08-17T02:22:34;19.40;99.90
15355;DHT22;7777;52.254;9.618;2023-08-17T02:25:00;19.30;99.90
15355;DHT22;7777;52.254;9.618;2023-08-17T02:27:26;19.30;99.90
15355;DHT22;7777;52.254;9.618;2023-08-17T02:29:51;19.30;99.90
15355;DHT22;7777;52.254;9.618;2023-08-17T02:32:17;19.30;99.90
15355;DHT22;7777;52.254;9.618;2023-08-17T02:34:43;19.30;99.90
15355;DHT22;7777;52.254;9.618;2023-08-17T02:37:09;19.30;99.90
15355;DHT22;7777;52.254;9.618;2023-08-17T02:39:34;19.30;99.90
15355;DHT22;7777;52.254;9.618;2023-08-17T02:42:00;19.20;99.90
15355;DHT22;7777;52.254;9.618;2023-08-17T02:44:26;19.30;99.90
15355;DHT22;7777;52.254;9.618;2023-08-17T02:46:53;19.20;99.90
15355;DHT22;7777;52.254;9.618;2023-08-17T02:49:19;19.20;99.90
15355;DHT22;7777;52.254;9.618;2023-08-17T02:51:45;19.20;99.90
15355;DHT22;7777;52.254;9.618;2023-08-17T02:54:11;19.20;99.90
15355;DHT22;7777;52.254;9.618;2023-08-17T02:56:37;19.20;99.90
15355;DHT22;7777;52.254;9.618;2023-08-17T02:59:02;19.20;99.90
15355;DHT22;7777;52.254;9.618;2023-08-17T03:01:28;19.20;99.90
15355;DHT22;7777;52.254;9.618;2023-08-17T03:03:55;19.20;99.90
15355;DHT22;7777;52.254;9.618;2023-08-17T03:06:21;19.20;99.90
15355;DHT22;7777;52.254;9.618;2023-08-17T03:08:46;19.20;99.90
15355;DHT22;7777;52.254;9.618;2023-08-17T03:11:12;19.20;99.90
15355;DHT22;7777;52.254;9.618;2023-08-17T03:13:38;19.20;99.90
15355;DHT22;7777;52.254;9.618;2023-08-17T03:16:04;19.20;99.90
15355;DHT22;7777;52.254;9.618;2023-08-17T03:18:29;19.20;99.90
15355;DHT22;7777;52.254;9.618;2023-08-17T03:20:55;19.20;99.90
15355;DHT22;7777;52.254;9.618;2023-08-17T03:23:21;19.20;99.90
15355;DHT22;7777;52.254;9.618;2023-08-17T03:25:51;19.20;99.90
15355;DHT22;7777;52.254;9.618;2023-08-17T03:28:18;19.20;99.90
15355;DHT22;7777;52.254;9.618;2023-08-17T03:30:43;19.20;99.90
15355;DHT22;7777;52.254;9.618;2023-08-17T03:33:09;19.20;99.90
15355;DHT22;7777;52.254;9.618;2023-08-17T03:35:35;19.20;99.90
15355;DHT22;7777;52.254;9.618;2023-08-17T03:38:00;19.20;99.90
15355;DHT22;7777;52.254;9.618;2023-08-17T03:40:26;19.20;99.90
15355;DHT22;7777;52.254;9.618;2023-08-17T03:42:52;19.20;99.90
15355;DHT22;7777;52.254;9.618;2023-08-17T03:45:18;19.20;99.90
15355;DHT22;7777;52.254;9.618;2023-08-17T03:47:44;19.20;99.90
15355;DHT22;7777;52.254;9.618;2023-08-17T03:50:09;19.20;99.90
15355;DHT22;7777;52.254;9.618;2023-08-17T03:52:35;19.20;99.90
15355;DHT22;7777;52.254;9.618;2023-08-17T03:55:01;19.20;99.90
15355;DHT22;7777;52.254;9.618;2023-08-17T03:57:27;19.20;99.90
15355;DHT22;7777;52.254;9.618;2023-08-17T03:59:53;19.20;99.90
15355;DHT22;7777;52.254;9.618;2023-08-17T04:02:18;19.20;99.90
15355;DHT22;7777;52.254;9.618;2023-08-17T04:04:44;19.20;99.90
15355;DHT22;7777;52.254;9.618;2023-08-17T04:07:10;19.20;99.90
15355;DHT22;7777;52.254;9.618;2023-08-17T04:09:36;19.20;99.90
15355;DHT22;7777;52.254;9.618;2023-08-17T04:12:02;19.20;99.90
15355;DHT22;7777;52.254;9.618;2023-08-17T04:14:30;19.20;99.90
15355;DHT22;7777;52.254;9.618;2023-08-17T04:16:58;19.20;99.90
15355;DHT22;7777;52.254;9.618;2023-08-17T04:19:24;19.20;99.90
15355;DHT22;7777;52.254;9.618;2023-08-17T04:21:49;19.20;99.90
15355;DHT22;7777;52.254;9.618;2023-08-17T04:24:15;19.20;99.90
15355;DHT22;7777;52.254;9.618;2023-08-17T04:26:41;19.20;99.90
15355;DHT22;7777;52.254;9.618;2023-08-17T04:29:06;19.20;99.90
15355;DHT22;7777;52.254;9.618;2023-08-17T04:31:32;19.20;99.90
15355;DHT22;7777;52.254;9.618;2023-08-17T04:33:58;19.20;99.90
15355;DHT22;7777;52.254;9.618;2023-08-17T04:36:23;19.20;99.90
15355;DHT22;7777;52.254;9.618;2023-08-17T04:38:49;19.20;99.90
15355;DHT22;7777;52.254;9.618;2023-08-17T04:41:15;19.20;99.90
15355;DHT22;7777;52.254;9.618;2023-08-17T04:43:42;19.20;99.90
15355;DHT22;7777;52.254;9.618;2023-08-17T04:46:08;19.30;99.90
15355;DHT22;7777;52.254;9.618;2023-08-17T04:48:34;19.30;99.90
15355;DHT22;7777;52.254;9.618;2023-08-17T04:50:59;19.30;99.90
15355;DHT22;7777;52.254;9.618;2023-08-17T04:53:25;19.30;99.90
15355;DHT22;7777;52.254;9.618;2023-08-17T04:55:51;19.30;99.90
15355;DHT22;7777;52.254;9.618;2023-08-17T04:58:16;19.30;99.90
15355;DHT22;7777;52.254;9.618;2023-08-17T05:00:42;19.30;99.90
15355;DHT22;7777;52.254;9.618;2023-08-17T05:03:08;19.30;99.90
15355;DHT22;7777;52.254;9.618;2023-08-17T05:05:33;19.30;99.90
15355;DHT22;7777;52.254;9.618;2023-08-17T05:08:01;19.30;99.90
15355;DHT22;7777;52.254;9.618;2023-08-17T05:10:27;19.30;99.90
15355;DHT22;7777;52.254;9.618;2023-08-17T05:12:52;19.30;99.90
15355;DHT22;7777;52.254;9.618;2023-08-17T05:15:20;19.40;99.90
15355;DHT22;7777;52.254;9.618;2023-08-17T05:17:45;19.40;99.90
15355;DHT22;7777;52.254;9.618;2023-08-17T05:20:11;19.40;99.90
15355;DHT22;7777;52.254;9.618;2023-08-17T05:22:41;19.40;99.90
15355;DHT22;7777;52.254;9.618;2023-08-17T05:25:07;19.40;99.90
15355;DHT22;7777;52.254;9.618;2023-08-17T05:27:33;19.40;99.90
15355;DHT22;7777;52.254;9.618;2023-08-17T05:29:58;19.40;99.90
15355;DHT22;7777;52.254;9.618;2023-08-17T05:32:24;19.40;99.90
15355;DHT22;7777;52.254;9.618;2023-08-17T05:34:50;19.40;99.90
15355;DHT22;7777;52.254;9.618;2023-08-17T05:37:16;19.40;99.90
15355;DHT22;7777;52.254;9.618;2023-08-17T05:39:42;19.50;99.90
15355;DHT22;7777;52.254;9.618;2023-08-17T05:42:07;19.50;99.90
15355;DHT22;7777;52.254;9.618;2023-08-17T05:44:35;19.50;99.90
15355;DHT22;7777;52.254;9.618;2023-08-17T05:47:01;19.50;99.90
15355;DHT22;7777;52.254;9.618;2023-08-17T05:49:27;19.50;99.90
15355;DHT22;7777;52.254;9.618;2023-08-17T05:51:52;19.50;99.90
15355;DHT22;7777;52.254;9.618;2023-08-17T05:54:18;19.50;99.90
15355;DHT22;7777;52.254;9.618;2023-08-17T05:56:44;19.50;99.90
15355;DHT22;7777;52.254;9.618;2023-08-17T05:59:12;19.50;99.90
15355;DHT22;7777;52.254;9.618;2023-08-17T06:01:39;19.50;99.90
15355;DHT22;7777;52.254;9.618;2023-08-17T06:04:05;19.50;99.90
15355;DHT22;7777;52.254;9.618;2023-08-17T06:06:31;19.60;99.90
15355;DHT22;7777;52.254;9.618;2023-08-17T06:08:57;19.60;99.90
15355;DHT22;7777;52.254;9.618;2023-08-17T06:11:23;19.60;99.90
15355;DHT22;7777;52.254;9.618;2023-08-17T06:13:49;19.60;99.90
15355;DHT22;7777;52.254;9.618;2023-08-17T06:16:15;19.60;99.90
15355;DHT22;7777;52.254;9.618;2023-08-17T06:18:41;19.60;99.90
15355;DHT22;7777;52.254;9.618;2023-08-17T06:21:08;19.60;99.90
15355;DHT22;7777;52.254;9.618;2023-08-17T06:23:34;19.60;99.90
15355;DHT22;7777;52.254;9.618;2023-08-17T06:26:00;19.60;99.90
15355;DHT22;7777;52.254;9.618;2023-08-17T06:28:26;19.60;99.90
15355;DHT22;7777;52.254;9.618;2023-08-17T06:30:53;19.60;99.90
15355;DHT22;7777;52.254;9.618;2023-08-17T06:33:22;19.60;99.90
15355;DHT22;7777;52.254;9.618;2023-08-17T06:35:49;19.70;99.90
15355;DHT22;7777;52.254;9.618;2023-08-17T06:38:14;19.70;99.90
15355;DHT22;7777;52.254;9.618;2023-08-17T06:40:41;19.70;99.90
15355;DHT22;7777;52.254;9.618;2023-08-17T06:43:07;19.60;99.90
15355;DHT22;7777;52.254;9.618;2023-08-17T06:45:33;19.70;99.90
15355;DHT22;7777;52.254;9.618;2023-08-17T06:48:00;19.70;99.90
15355;DHT22;7777;52.254;9.618;2023-08-17T06:50:26;19.70;99.90
15355;DHT22;7777;52.254;9.618;2023-08-17T06:52:53;19.70;99.90
15355;DHT22;7777;52.254;9.618;2023-08-17T06:55:19;19.70;99.90
15355;DHT22;7777;52.254;9.618;2023-08-17T06:57:46;19.70;99.90
15355;DHT22;7777;52.254;9.618;2023-08-17T07:00:12;19.70;99.90
15355;DHT22;7777;52.254;9.618;2023-08-17T07:02:38;19.70;99.90
15355;DHT22;7777;52.254;9.618;2023-08-17T07:05:04;19.70;99.90
15355;DHT22;7777;52.254;9.618;2023-08-17T07:07:30;19.70;99.90
15355;DHT22;7777;52.254;9.618;2023-08-17T07:09:59;19.70;99.90
15355;DHT22;7777;52.254;9.618;2023-08-17T07:12:25;19.70;99.90
15355;DHT22;7777;52.254;9.618;2023-08-17T07:14:50;19.70;99.90
15355;DHT22;7777;52.254;9.618;2023-08-17T07:17:16;19.70;99.90
15355;DHT22;7777;52.254;9.618;2023-08-17T07:19:42;19.70;99.90
15355;DHT22;7777;52.254;9.618;2023-08-17T07:22:08;19.70;99.90
15355;DHT22;7777;52.254;9.618;2023-08-17T07:24:33;19.70;99.90
15355;DHT22;7777;52.254;9.618;2023-08-17T07:26:59;19.70;99.90
15355;DHT22;7777;52.254;9.618;2023-08-17T07:29:28;19.70;99.90
15355;DHT22;7777;52.254;9.618;2023-08-17T07:31:53;19.70;99.90
15355;DHT22;7777;52.254;9.618;2023-08-17T07:34:19;19.70;99.90
15355;DHT22;7777;52.254;9.618;2023-08-17T07:36:45;19.70;99.90
15355;DHT22;7777;52.254;9.618;2023-08-17T07:39:11;19.70;99.90
15355;DHT22;7777;52.254;9.618;2023-08-17T07:41:37;19.70;99.90
15355;DHT22;7777;52.254;9.618;2023-08-17T07:44:03;19.70;99.90
15355;DHT22;7777;52.254;9.618;2023-08-17T07:46:29;19.80;99.90
15355;DHT22;7777;52.254;9.618;2023-08-17T07:48:55;19.80;99.90
15355;DHT22;7777;52.254;9.618;2023-08-17T07:51:20;19.80;99.90
15355;DHT22;7777;52.254;9.618;2023-08-17T07:53:46;19.80;99.90
15355;DHT22;7777;52.254;9.618;2023-08-17T07:56:12;19.80;99.90
15355;DHT22;7777;52.254;9.618;2023-08-17T07:58:38;19.80;99.90
15355;DHT22;7777;52.254;9.618;2023-08-17T08:01:04;19.80;99.90
15355;DHT22;7777;52.254;9.618;2023-08-17T08:03:29;19.80;99.90
15355;DHT22;7777;52.254;9.618;2023-08-17T08:05:55;19.80;99.90
15355;DHT22;7777;52.254;9.618;2023-08-17T08:08:21;19.80;99.90
15355;DHT22;7777;52.254;9.618;2023-08-17T08:10:46;19.80;99.90
15355;DHT22;7777;52.254;9.618;2023-08-17T08:13:12;19.80;99.90
15355;DHT22;7777;52.254;9.618;2023-08-17T08:15:38;19.80;99.90
15355;DHT22;7777;52.254;9.618;2023-08-17T08:18:04;19.80;99.90
15355;DHT22;7777;52.254;9.618;2023-08-17T08:20:30;19.80;99.90
15355;DHT22;7777;52.254;9.618;2023-08-17T08:22:55;19.80;99.90
15355;DHT22;7777;52.254;9.618;2023-08-17T08:25:21;19.80;99.90
15355;DHT22;7777;52.254;9.618;2023-08-17T08:27:47;19.80;99.90
15355;DHT22;7777;52.254;9.618;2023-08-17T08:30:12;19.90;99.90
15355;DHT22;7777;52.254;9.618;2023-08-17T08:32:38;19.90;99.90
15355;DHT22;7777;52.254;9.618;2023-08-17T08:35:04;19.90;99.90
15355;DHT22;7777;52.254;9.618;2023-08-17T08:37:30;19.90;99.90
15355;DHT22;7777;52.254;9.618;2023-08-17T08:39:56;19.90;99.90
15355;DHT22;7777;52.254;9.618;2023-08-17T08:42:22;19.90;99.90
15355;DHT22;7777;52.254;9.618;2023-08-17T08:44:49;19.90;99.90
15355;DHT22;7777;52.254;9.618;2023-08-17T08:47:17;19.90;99.90
15355;DHT22;7777;52.254;9.618;2023-08-17T08:49:57;19.90;99.90
15355;DHT22;7777;52.254;9.618;2023-08-17T08:52:34;19.90;99.90
15355;DHT22;7777;52.254;9.618;2023-08-17T08:55:34;19.90;99.90
15355;DHT22;7777;52.254;9.618;2023-08-17T08:58:04;19.90;99.90
15355;DHT22;7777;52.254;9.618;2023-08-17T09:00:31;19.90;99.90
15355;DHT22;7777;52.254;9.618;2023-08-17T09:02:57;19.90;99.90
15355;DHT22;7777;52.254;9.618;2023-08-17T09:05:23;19.90;99.90
15355;DHT22;7777;52.254;9.618;2023-08-17T09:07:49;19.90;99.90
15355;DHT22;7777;52.254;9.618;2023-08-17T09:10:16;19.90;99.90
15355;DHT22;7777;52.254;9.618;2023-08-17T09:12:45;20.00;99.90
15355;DHT22;7777;52.254;9.618;2023-08-17T09:15:11;20.00;99.90
15355;DHT22;7777;52.254;9.618;2023-08-17T09:17:37;20.00;99.90
15355;DHT22;7777;52.254;9.618;2023-08-17T09:20:03;20.00;99.90
15355;DHT22;7777;52.254;9.618;2023-08-17T09:22:43;20.00;99.90
15355;DHT22;7777;52.254;9.618;2023-08-17T09:25:10;20.00;99.90
15355;DHT22;7777;52.254;9.618;2023-08-17T09:27:37;20.00;99.90
15355;DHT22;7777;52.254;9.618;2023-08-17T09:30:10;20.00;99.90
15355;DHT22;7777;52.254;9.618;2023-08-17T09:32:36;20.00;99.90
15355;DHT22;7777;52.254;9.618;2023-08-17T09:35:02;20.00;99.90
15355;DHT22;7777;52.254;9.618;2023-08-17T09:37:30;20.00;99.90
15355;DHT22;7777;52.254;9.618;2023-08-17T09:39:57;20.00;99.90
15355;DHT22;7777;52.254;9.618;2023-08-17T09:42:23;20.00;99.90
15355;DHT22;7777;52.254;9.618;2023-08-17T09:44:51;20.00;99.90
15355;DHT22;7777;52.254;9.618;2023-08-17T09:47:18;20.00;99.90
15355;DHT22;7777;52.254;9.618;2023-08-17T09:49:53;20.00;99.90
15355;DHT22;7777;52.254;9.618;2023-08-17T09:52:23;20.00;99.90
15355;DHT22;7777;52.254;9.618;2023-08-17T09:54:52;20.00;99.90
15355;DHT22;7777;52.254;9.618;2023-08-17T09:57:21;20.00;99.90
15355;DHT22;7777;52.254;9.618;2023-08-17T09:59:47;20.00;99.90
15355;DHT22;7777;52.254;9.618;2023-08-17T10:02:19;20.00;99.90
15355;DHT22;7777;52.254;9.618;2023-08-17T10:04:52;20.00;99.90
15355;DHT22;7777;52.254;9.618;2023-08-17T10:07:19;20.00;99.90
15355;DHT22;7777;52.254;9.618;2023-08-17T10:09:53;20.00;99.90
15355;DHT22;7777;52.254;9.618;2023-08-17T10:12:25;20.00;99.90
15355;DHT22;7777;52.254;9.618;2023-08-17T10:15:02;20.00;99.90
15355;DHT22;7777;52.254;9.618;2023-08-17T10:17:52;20.00;99.90
15355;DHT22;7777;52.254;9.618;2023-08-17T10:20:37;20.00;99.90
15355;DHT22;7777;52.254;9.618;2023-08-17T10:23:12;20.00;99.90
15355;DHT22;7777;52.254;9.618;2023-08-17T10:25:41;20.00;99.90
15355;DHT22;7777;52.254;9.618;2023-08-17T10:28:09;20.00;99.90
15355;DHT22;7777;52.254;9.618;2023-08-17T10:30:37;20.00;99.90
15355;DHT22;7777;52.254;9.618;2023-08-17T10:33:05;20.00;99.90
15355;DHT22;7777;52.254;9.618;2023-08-17T10:35:32;20.00;99.90
15355;DHT22;7777;52.254;9.618;2023-08-17T10:37:59;20.00;99.90
15355;DHT22;7777;52.254;9.618;2023-08-17T10:40:33;20.00;99.90
15355;DHT22;7777;52.254;9.618;2023-08-17T10:43:00;20.00;99.90
15355;DHT22;7777;52.254;9.618;2023-08-17T10:45:28;20.00;99.90
15355;DHT22;7777;52.254;9.618;2023-08-17T10:48:24;20.00;99.90
15355;DHT22;7777;52.254;9.618;2023-08-17T10:51:02;20.00;99.90
15355;DHT22;7777;52.254;9.618;2023-08-17T10:53:34;20.00;99.90
15355;DHT22;7777;52.254;9.618;2023-08-17T10:56:07;20.00;99.90
15355;DHT22;7777;52.254;9.618;2023-08-17T10:58:34;20.00;99.90
15355;DHT22;7777;52.254;9.618;2023-08-17T11:00:59;19.90;99.90
15355;DHT22;7777;52.254;9.618;2023-08-17T11:03:25;19.90;99.90
15355;DHT22;7777;52.254;9.618;2023-08-17T11:05:56;19.90;99.90
15355;DHT22;7777;52.254;9.618;2023-08-17T11:08:31;19.90;99.90
15355;DHT22;7777;52.254;9.618;2023-08-17T11:11:13;19.80;99.90
15355;DHT22;7777;52.254;9.618;2023-08-17T11:13:43;19.80;99.90
15355;DHT22;7777;52.254;9.618;2023-08-17T11:16:14;19.80;99.90
15355;DHT22;7777;52.254;9.618;2023-08-17T11:18:41;19.80;99.90
15355;DHT22;7777;52.254;9.618;2023-08-17T11:21:08;19.70;99.90
15355;DHT22;7777;52.254;9.618;2023-08-17T11:23:37;19.70;99.90
15355;DHT22;7777;52.254;9.618;2023-08-17T11:26:03;19.70;99.90
15355;DHT22;7777;52.254;9.618;2023-08-17T11:28:31;19.70;99.90
15355;DHT22;7777;52.254;9.618;2023-08-17T11:31:02;19.70;99.90
15355;DHT22;7777;52.254;9.618;2023-08-17T11:33:31;19.60;99.90
15355;DHT22;7777;52.254;9.618;2023-08-17T11:35:58;19.60;99.90
15355;DHT22;7777;52.254;9.618;2023-08-17T11:38:25;19.60;99.90
15355;DHT22;7777;52.254;9.618;2023-08-17T11:40:52;19.50;99.90
15355;DHT22;7777;52.254;9.618;2023-08-17T11:43:18;19.50;99.90
15355;DHT22;7777;52.254;9.618;2023-08-17T11:45:46;19.50;99.90
15355;DHT22;7777;52.254;9.618;2023-08-17T11:48:12;19.50;99.90
15355;DHT22;7777;52.254;9.618;2023-08-17T11:50:38;19.50;99.90
15355;DHT22;7777;52.254;9.618;2023-08-17T11:53:05;19.50;99.90
15355;DHT22;7777;52.254;9.618;2023-08-17T11:55:31;19.40;99.90
15355;DHT22;7777;52.254;9.618;2023-08-17T11:57:56;19.40;99.90
15355;DHT22;7777;52.254;9.618;2023-08-17T12:00:22;19.40;99.90
15355;DHT22;7777;52.254;9.618;2023-08-17T12:02:51;19.40;99.90
15355;DHT22;7777;52.254;9.618;2023-08-17T12:05:24;19.30;99.90
15355;DHT22;7777;52.254;9.618;2023-08-17T12:07:55;19.30;99.90
15355;DHT22;7777;52.254;9.618;2023-08-17T12:10:21;19.30;99.90
15355;DHT22;7777;52.254;9.618;2023-08-17T12:12:50;19.30;99.90
15355;DHT22;7777;52.254;9.618;2023-08-17T12:15:17;19.20;99.90
15355;DHT22;7777;52.254;9.618;2023-08-17T12:17:46;19.20;99.90
15355;DHT22;7777;52.254;9.618;2023-08-17T12:20:17;19.20;99.90
15355;DHT22;7777;52.254;9.618;2023-08-17T12:22:45;19.10;99.90
15355;DHT22;7777;52.254;9.618;2023-08-17T12:25:14;19.10;99.90
15355;DHT22;7777;52.254;9.618;2023-08-17T12:27:40;19.10;99.90
15355;DHT22;7777;52.254;9.618;2023-08-17T12:30:22;19.10;99.90
15355;DHT22;7777;52.254;9.618;2023-08-17T12:32:49;19.00;99.90
15355;DHT22;7777;52.254;9.618;2023-08-17T12:35:15;19.00;99.90
15355;DHT22;7777;52.254;9.618;2023-08-17T12:37:41;19.00;99.90
15355;DHT22;7777;52.254;9.618;2023-08-17T12:40:07;19.00;99.90
15355;DHT22;7777;52.254;9.618;2023-08-17T12:42:35;19.00;99.90
15355;DHT22;7777;52.254;9.618;2023-08-17T12:45:01;19.00;99.90
15355;DHT22;7777;52.254;9.618;2023-08-17T12:47:26;18.90;99.90
15355;DHT22;7777;52.254;9.618;2023-08-17T12:49:52;18.90;99.90
15355;DHT22;7777;52.254;9.618;2023-08-17T12:52:18;18.90;99.90
15355;DHT22;7777;52.254;9.618;2023-08-17T12:54:44;18.90;99.90
15355;DHT22;7777;52.254;9.618;2023-08-17T12:57:10;18.90;99.90
15355;DHT22;7777;52.254;9.618;2023-08-17T12:59:35;18.90;99.90
15355;DHT22;7777;52.254;9.618;2023-08-17T13:02:01;18.90;99.90
15355;DHT22;7777;52.254;9.618;2023-08-17T13:04:27;18.90;99.90
15355;DHT22;7777;52.254;9.618;2023-08-17T13:06:53;18.90;99.90
15355;DHT22;7777;52.254;9.618;2023-08-17T13:09:20;19.00;99.90
15355;DHT22;7777;52.254;9.618;2023-08-17T13:11:46;19.00;99.90
15355;DHT22;7777;52.254;9.618;2023-08-17T13:14:15;19.00;99.90
15355;DHT22;7777;52.254;9.618;2023-08-17T13:16:41;19.00;99.90
15355;DHT22;7777;52.254;9.618;2023-08-17T13:19:07;19.00;99.90
15355;DHT22;7777;52.254;9.618;2023-08-17T13:21:33;19.00;99.90
15355;DHT22;7777;52.254;9.618;2023-08-17T13:23:59;19.00;99.90
15355;DHT22;7777;52.254;9.618;2023-08-17T13:26:25;19.00;99.90
15355;DHT22;7777;52.254;9.618;2023-08-17T13:28:51;19.00;99.90
15355;DHT22;7777;52.254;9.618;2023-08-17T13:31:16;19.00;99.90
15355;DHT22;7777;52.254;9.618;2023-08-17T13:33:42;19.00;99.90
15355;DHT22;7777;52.254;9.618;2023-08-17T13:36:08;19.00;99.90
15355;DHT22;7777;52.254;9.618;2023-08-17T13:38:33;19.00;99.90
15355;DHT22;7777;52.254;9.618;2023-08-17T13:40:59;19.00;99.90
15355;DHT22;7777;52.254;9.618;2023-08-17T13:43:25;19.00;99.90
15355;DHT22;7777;52.254;9.618;2023-08-17T13:45:50;19.00;99.90
15355;DHT22;7777;52.254;9.618;2023-08-17T13:48:16;19.00;99.90
15355;DHT22;7777;52.254;9.618;2023-08-17T13:50:42;19.00;99.90
15355;DHT22;7777;52.254;9.618;2023-08-17T13:53:07;19.00;99.90
15355;DHT22;7777;52.254;9.618;2023-08-17T13:55:33;19.00;99.90
15355;DHT22;7777;52.254;9.618;2023-08-17T13:57:59;19.00;99.90
15355;DHT22;7777;52.254;9.618;2023-08-17T14:00:25;19.00;99.90
15355;DHT22;7777;52.254;9.618;2023-08-17T14:02:52;19.10;99.90
15355;DHT22;7777;52.254;9.618;2023-08-17T14:05:18;19.10;99.90
15355;DHT22;7777;52.254;9.618;2023-08-17T14:07:44;19.10;99.90
15355;DHT22;7777;52.254;9.618;2023-08-17T14:10:10;19.10;99.90
15355;DHT22;7777;52.254;9.618;2023-08-17T14:12:36;19.10;99.90
15355;DHT22;7777;52.254;9.618;2023-08-17T14:15:02;19.10;99.90
15355;DHT22;7777;52.254;9.618;2023-08-17T14:17:28;19.10;99.90
15355;DHT22;7777;52.254;9.618;2023-08-17T14:19:54;19.10;99.90
15355;DHT22;7777;52.254;9.618;2023-08-17T14:22:21;19.10;99.90
15355;DHT22;7777;52.254;9.618;2023-08-17T14:24:46;19.10;99.90
15355;DHT22;7777;52.254;9.618;2023-08-17T14:27:12;19.10;99.90
15355;DHT22;7777;52.254;9.618;2023-08-17T14:29:38;19.10;99.90
15355;DHT22;7777;52.254;9.618;2023-08-17T14:32:04;19.10;99.90
15355;DHT22;7777;52.254;9.618;2023-08-17T14:34:30;19.10;99.90
15355;DHT22;7777;52.254;9.618;2023-08-17T14:36:55;19.10;99.90
15355;DHT22;7777;52.254;9.618;2023-08-17T14:39:21;19.10;99.90
15355;DHT22;7777;52.254;9.618;2023-08-17T14:41:47;19.10;99.90
15355;DHT22;7777;52.254;9.618;2023-08-17T14:44:13;19.10;99.90
15355;DHT22;7777;52.254;9.618;2023-08-17T14:46:38;19.10;99.90
15355;DHT22;7777;52.254;9.618;2023-08-17T14:49:04;19.10;99.90
15355;DHT22;7777;52.254;9.618;2023-08-17T14:51:37;19.10;99.90
15355;DHT22;7777;52.254;9.618;2023-08-17T14:54:04;19.10;99.90
15355;DHT22;7777;52.254;9.618;2023-08-17T14:56:30;19.00;99.90
15355;DHT22;7777;52.254;9.618;2023-08-17T14:58:56;19.10;99.90
15355;DHT22;7777;52.254;9.618;2023-08-17T15:01:21;19.10;99.90
15355;DHT22;7777;52.254;9.618;2023-08-17T15:03:47;19.10;99.90
15355;DHT22;7777;52.254;9.618;2023-08-17T15:06:13;19.10;99.90
15355;DHT22;7777;52.254;9.618;2023-08-17T15:08:38;19.10;99.90
15355;DHT22;7777;52.254;9.618;2023-08-17T15:11:04;19.10;99.90
15355;DHT22;7777;52.254;9.618;2023-08-17T15:13:30;19.10;99.90
15355;DHT22;7777;52.254;9.618;2023-08-17T15:15:58;19.10;99.90
15355;DHT22;7777;52.254;9.618;2023-08-17T15:18:24;19.10;99.90
15355;DHT22;7777;52.254;9.618;2023-08-17T15:20:49;19.10;99.90
15355;DHT22;7777;52.254;9.618;2023-08-17T15:23:15;19.10;99.90
15355;DHT22;7777;52.254;9.618;2023-08-17T15:25:41;19.10;99.90
15355;DHT22;7777;52.254;9.618;2023-08-17T15:28:07;19.10;99.90
15355;DHT22;7777;52.254;9.618;2023-08-17T15:30:33;19.10;99.90
15355;DHT22;7777;52.254;9.618;2023-08-17T15:32:58;19.10;99.90
15355;DHT22;7777;52.254;9.618;2023-08-17T15:35:24;19.10;99.90
15355;DHT22;7777;52.254;9.618;2023-08-17T15:37:50;19.10;99.90
15355;DHT22;7777;52.254;9.618;2023-08-17T15:40:16;19.10;99.90
15355;DHT22;7777;52.254;9.618;2023-08-17T15:42:41;19.00;99.90
15355;DHT22;7777;52.254;9.618;2023-08-17T15:45:07;19.00;99.90